sensor_id;sensor_type;location;lat;lon;timestamp;P1;durP1;ratioP1;P2;durP2;ratioP2
11735;SDS011;5924;51.398;7.088;2023-08-31T00:00:10;2.50;;;2.40;;
11735;SDS011;5924;51.398;7.088;2023-08-31T00:02:37;2.63;;;2.63;;
11735;SDS011;5924;51.398;7.088;2023-08-31T00:05:09;2.80;;;2.67;;
11735;SDS011;5924;51.398;7.088;2023-08-31T00:07:35;2.57;;;2.37;;
11735;SDS011;5924;51.398;7.088;2023-08-31T00:10:04;8.10;;;2.87;;
11735;SDS011;5924;51.398;7.088;2023-08-31T00:12:36;2.63;;;2.53;;
11735;SDS011;5924;51.398;7.088;2023-08-31T00:15:03;5.03;;;2.60;;
11735;SDS011;5924;51.398;7.088;2023-08-31T00:17:34;2.77;;;2.67;;
11735;SDS011;5924;51.398;7.088;2023-08-31T00:19:59;2.70;;;2.60;;
11735;SDS011;5924;51.398;7.088;2023-08-31T00:22:25;2.80;;;2.63;;
11735;SDS011;5924;51.398;7.088;2023-08-31T00:24:51;6.73;;;3.17;;
11735;SDS011;5924;51.398;7.088;2023-08-31T00:27:17;3.20;;;3.00;;
11735;SDS011;5924;51.398;7.088;2023-08-31T00:29:48;3.90;;;3.07;;
11735;SDS011;5924;51.398;7.088;2023-08-31T00:32:19;3.00;;;2.90;;
11735;SDS011;5924;51.398;7.088;2023-08-31T00:34:47;4.57;;;4.10;;
11735;SDS011;5924;51.398;7.088;2023-08-31T00:37:13;4.43;;;3.20;;
11735;SDS011;5924;51.398;7.088;2023-08-31T00:39:38;3.53;;;3.17;;
11735;SDS011;5924;51.398;7.088;2023-08-31T00:42:04;6.50;;;3.70;;
11735;SDS011;5924;51.398;7.088;2023-08-31T00:44:31;4.03;;;3.83;;
11735;SDS011;5924;51.398;7.088;2023-08-31T00:47:06;3.83;;;3.27;;
11735;SDS011;5924;51.398;7.088;2023-08-31T00:49:32;6.73;;;3.77;;
11735;SDS011;5924;51.398;7.088;2023-08-31T00:52:10;5.23;;;3.40;;
11735;SDS011;5924;51.398;7.088;2023-08-31T00:54:41;3.40;;;3.30;;
11735;SDS011;5924;51.398;7.088;2023-08-31T00:57:14;6.33;;;3.27;;
11735;SDS011;5924;51.398;7.088;2023-08-31T00:59:40;4.30;;;3.80;;
11735;SDS011;5924;51.398;7.088;2023-08-31T01:04:57;12.70;;;4.30;;
11735;SDS011;5924;51.398;7.088;2023-08-31T01:07:53;13.93;;;4.37;;
11735;SDS011;5924;51.398;7.088;2023-08-31T01:13:32;5.83;;;3.90;;
11735;SDS011;5924;51.398;7.088;2023-08-31T01:16:05;4.73;;;4.30;;
11735;SDS011;5924;51.398;7.088;2023-08-31T01:18:32;4.37;;;3.97;;
11735;SDS011;5924;51.398;7.088;2023-08-31T01:21:02;6.17;;;4.40;;
11735;SDS011;5924;51.398;7.088;2023-08-31T01:23:57;4.23;;;3.93;;
11735;SDS011;5924;51.398;7.088;2023-08-31T01:26:24;4.63;;;4.23;;
11735;SDS011;5924;51.398;7.088;2023-08-31T01:28:51;5.20;;;4.80;;
11735;SDS011;5924;51.398;7.088;2023-08-31T01:31:18;10.27;;;4.10;;
11735;SDS011;5924;51.398;7.088;2023-08-31T01:33:43;3.83;;;3.73;;
11735;SDS011;5924;51.398;7.088;2023-08-31T01:36:15;5.30;;;4.00;;
11735;SDS011;5924;51.398;7.088;2023-08-31T01:38:48;6.37;;;3.90;;
11735;SDS011;5924;51.398;7.088;2023-08-31T01:41:28;6.83;;;4.00;;
11735;SDS011;5924;51.398;7.088;2023-08-31T01:43:58;4.70;;;4.30;;
11735;SDS011;5924;51.398;7.088;2023-08-31T01:46:25;4.73;;;4.10;;
11735;SDS011;5924;51.398;7.088;2023-08-31T01:48:54;4.53;;;4.20;;
11735;SDS011;5924;51.398;7.088;2023-08-31T01:51:20;4.33;;;4.13;;
11735;SDS011;5924;51.398;7.088;2023-08-31T01:53:58;3.80;;;3.50;;
11735;SDS011;5924;51.398;7.088;2023-08-31T01:56:24;4.30;;;4.00;;
11735;SDS011;5924;51.398;7.088;2023-08-31T01:58:52;13.40;;;3.77;;
11735;SDS011;5924;51.398;7.088;2023-08-31T02:01:18;4.37;;;3.80;;
11735;SDS011;5924;51.398;7.088;2023-08-31T02:03:46;4.90;;;3.50;;
11735;SDS011;5924;51.398;7.088;2023-08-31T02:08:59;3.33;;;3.23;;
11735;SDS011;5924;51.398;7.088;2023-08-31T02:11:25;6.40;;;3.90;;
11735;SDS011;5924;51.398;7.088;2023-08-31T02:13:54;4.37;;;3.63;;
11735;SDS011;5924;51.398;7.088;2023-08-31T02:16:19;4.37;;;4.00;;
11735;SDS011;5924;51.398;7.088;2023-08-31T02:18:45;3.90;;;3.70;;
11735;SDS011;5924;51.398;7.088;2023-08-31T02:21:11;7.00;;;4.57;;
11735;SDS011;5924;51.398;7.088;2023-08-31T02:23:37;4.30;;;4.20;;
11735;SDS011;5924;51.398;7.088;2023-08-31T02:26:03;10.33;;;4.33;;
11735;SDS011;5924;51.398;7.088;2023-08-31T02:28:28;3.93;;;3.70;;
11735;SDS011;5924;51.398;7.088;2023-08-31T02:30:57;5.30;;;3.70;;
11735;SDS011;5924;51.398;7.088;2023-08-31T02:33:24;8.90;;;4.80;;
11735;SDS011;5924;51.398;7.088;2023-08-31T02:35:50;7.13;;;4.00;;
11735;SDS011;5924;51.398;7.088;2023-08-31T02:38:19;8.30;;;4.33;;
11735;SDS011;5924;51.398;7.088;2023-08-31T02:40:51;4.40;;;4.10;;
11735;SDS011;5924;51.398;7.088;2023-08-31T02:43:17;4.30;;;3.90;;
11735;SDS011;5924;51.398;7.088;2023-08-31T02:45:51;5.90;;;4.30;;
11735;SDS011;5924;51.398;7.088;2023-08-31T02:48:27;8.20;;;4.20;;
11735;SDS011;5924;51.398;7.088;2023-08-31T02:50:58;5.17;;;3.80;;
11735;SDS011;5924;51.398;7.088;2023-08-31T02:53:33;4.20;;;4.00;;
11735;SDS011;5924;51.398;7.088;2023-08-31T02:56:01;4.23;;;4.03;;
11735;SDS011;5924;51.398;7.088;2023-08-31T02:58:30;5.70;;;4.40;;
11735;SDS011;5924;51.398;7.088;2023-08-31T03:01:05;4.17;;;3.87;;
11735;SDS011;5924;51.398;7.088;2023-08-31T03:03:40;6.00;;;4.30;;
11735;SDS011;5924;51.398;7.088;2023-08-31T03:06:10;5.03;;;4.63;;
11735;SDS011;5924;51.398;7.088;2023-08-31T03:08:36;5.23;;;4.53;;
11735;SDS011;5924;51.398;7.088;2023-08-31T03:11:03;10.30;;;5.00;;
11735;SDS011;5924;51.398;7.088;2023-08-31T03:14:03;5.23;;;4.27;;
11735;SDS011;5924;51.398;7.088;2023-08-31T03:16:24;8.00;;;4.27;;
11735;SDS011;5924;51.398;7.088;2023-08-31T03:18:50;5.07;;;4.53;;
11735;SDS011;5924;51.398;7.088;2023-08-31T03:21:18;8.03;;;5.33;;
11735;SDS011;5924;51.398;7.088;2023-08-31T03:23:45;4.63;;;4.27;;
11735;SDS011;5924;51.398;7.088;2023-08-31T03:26:10;4.80;;;4.47;;
11735;SDS011;5924;51.398;7.088;2023-08-31T03:28:36;4.70;;;4.40;;
11735;SDS011;5924;51.398;7.088;2023-08-31T03:31:03;6.10;;;4.37;;
11735;SDS011;5924;51.398;7.088;2023-08-31T03:33:31;8.30;;;4.80;;
11735;SDS011;5924;51.398;7.088;2023-08-31T03:36:03;8.70;;;5.97;;
11735;SDS011;5924;51.398;7.088;2023-08-31T03:38:35;8.37;;;5.97;;
11735;SDS011;5924;51.398;7.088;2023-08-31T03:41:15;10.10;;;7.57;;
11735;SDS011;5924;51.398;7.088;2023-08-31T03:43:43;8.50;;;7.33;;
11735;SDS011;5924;51.398;7.088;2023-08-31T03:46:14;10.10;;;7.00;;
11735;SDS011;5924;51.398;7.088;2023-08-31T03:48:40;10.50;;;6.90;;
11735;SDS011;5924;51.398;7.088;2023-08-31T03:51:06;12.10;;;8.23;;
11735;SDS011;5924;51.398;7.088;2023-08-31T03:53:33;14.23;;;9.13;;
11735;SDS011;5924;51.398;7.088;2023-08-31T03:55:59;11.93;;;9.80;;
11735;SDS011;5924;51.398;7.088;2023-08-31T03:58:24;21.93;;;11.47;;
11735;SDS011;5924;51.398;7.088;2023-08-31T04:00:50;19.77;;;10.57;;
11735;SDS011;5924;51.398;7.088;2023-08-31T04:03:19;25.70;;;12.17;;
11735;SDS011;5924;51.398;7.088;2023-08-31T04:05:57;14.00;;;9.03;;
11735;SDS011;5924;51.398;7.088;2023-08-31T04:08:38;12.00;;;9.27;;
11735;SDS011;5924;51.398;7.088;2023-08-31T04:11:03;13.30;;;9.40;;
11735;SDS011;5924;51.398;7.088;2023-08-31T04:13:29;17.40;;;9.20;;
11735;SDS011;5924;51.398;7.088;2023-08-31T04:15:58;9.50;;;8.50;;
11735;SDS011;5924;51.398;7.088;2023-08-31T04:18:23;9.10;;;8.27;;
11735;SDS011;5924;51.398;7.088;2023-08-31T04:20:50;13.33;;;8.63;;
11735;SDS011;5924;51.398;7.088;2023-08-31T04:23:17;10.00;;;8.57;;
11735;SDS011;5924;51.398;7.088;2023-08-31T04:25:43;13.10;;;9.33;;
11735;SDS011;5924;51.398;7.088;2023-08-31T04:28:19;12.37;;;8.40;;
11735;SDS011;5924;51.398;7.088;2023-08-31T04:30:44;15.67;;;9.57;;
11735;SDS011;5924;51.398;7.088;2023-08-31T04:33:10;10.63;;;8.73;;
11735;SDS011;5924;51.398;7.088;2023-08-31T04:35:44;11.87;;;9.23;;
11735;SDS011;5924;51.398;7.088;2023-08-31T04:38:10;24.83;;;10.63;;
11735;SDS011;5924;51.398;7.088;2023-08-31T04:40:36;20.10;;;12.27;;
11735;SDS011;5924;51.398;7.088;2023-08-31T04:43:02;31.03;;;12.90;;
11735;SDS011;5924;51.398;7.088;2023-08-31T04:45:30;18.33;;;11.37;;
11735;SDS011;5924;51.398;7.088;2023-08-31T04:47:56;22.47;;;12.30;;
11735;SDS011;5924;51.398;7.088;2023-08-31T04:50:28;18.07;;;12.00;;
11735;SDS011;5924;51.398;7.088;2023-08-31T04:52:56;22.77;;;13.37;;
11735;SDS011;5924;51.398;7.088;2023-08-31T04:55:22;20.60;;;12.17;;
11735;SDS011;5924;51.398;7.088;2023-08-31T04:57:47;31.13;;;12.37;;
11735;SDS011;5924;51.398;7.088;2023-08-31T05:00:21;18.47;;;11.77;;
11735;SDS011;5924;51.398;7.088;2023-08-31T05:02:47;22.27;;;11.43;;
11735;SDS011;5924;51.398;7.088;2023-08-31T05:05:17;16.47;;;10.13;;
11735;SDS011;5924;51.398;7.088;2023-08-31T05:07:43;16.77;;;10.40;;
11735;SDS011;5924;51.398;7.088;2023-08-31T05:10:09;16.17;;;11.50;;
11735;SDS011;5924;51.398;7.088;2023-08-31T05:12:41;19.40;;;12.47;;
11735;SDS011;5924;51.398;7.088;2023-08-31T05:15:07;25.00;;;11.87;;
11735;SDS011;5924;51.398;7.088;2023-08-31T05:17:38;18.43;;;11.70;;
11735;SDS011;5924;51.398;7.088;2023-08-31T05:20:04;16.57;;;11.77;;
11735;SDS011;5924;51.398;7.088;2023-08-31T05:22:30;17.43;;;11.40;;
11735;SDS011;5924;51.398;7.088;2023-08-31T05:24:56;18.93;;;12.33;;
11735;SDS011;5924;51.398;7.088;2023-08-31T05:27:25;21.63;;;13.47;;
11735;SDS011;5924;51.398;7.088;2023-08-31T05:30:09;21.03;;;11.77;;
11735;SDS011;5924;51.398;7.088;2023-08-31T05:32:35;14.80;;;11.20;;
11735;SDS011;5924;51.398;7.088;2023-08-31T05:35:01;19.67;;;13.70;;
11735;SDS011;5924;51.398;7.088;2023-08-31T05:37:31;17.97;;;11.97;;
11735;SDS011;5924;51.398;7.088;2023-08-31T05:39:58;17.50;;;11.90;;
11735;SDS011;5924;51.398;7.088;2023-08-31T05:42:47;14.30;;;9.87;;
11735;SDS011;5924;51.398;7.088;2023-08-31T05:45:12;12.93;;;10.77;;
11735;SDS011;5924;51.398;7.088;2023-08-31T05:47:40;11.67;;;9.30;;
11735;SDS011;5924;51.398;7.088;2023-08-31T05:50:06;13.60;;;9.80;;
11735;SDS011;5924;51.398;7.088;2023-08-31T05:55:48;9.73;;;8.77;;
11735;SDS011;5924;51.398;7.088;2023-08-31T05:58:14;9.50;;;8.60;;
11735;SDS011;5924;51.398;7.088;2023-08-31T06:00:40;9.27;;;7.57;;
11735;SDS011;5924;51.398;7.088;2023-08-31T06:03:05;11.50;;;8.10;;
11735;SDS011;5924;51.398;7.088;2023-08-31T06:05:47;9.00;;;8.17;;
11735;SDS011;5924;51.398;7.088;2023-08-31T06:08:13;8.30;;;7.50;;
11735;SDS011;5924;51.398;7.088;2023-08-31T06:10:38;8.83;;;7.87;;
11735;SDS011;5924;51.398;7.088;2023-08-31T06:13:04;9.80;;;7.67;;
11735;SDS011;5924;51.398;7.088;2023-08-31T06:15:30;8.33;;;7.53;;
11735;SDS011;5924;51.398;7.088;2023-08-31T06:18:05;7.13;;;6.57;;
11735;SDS011;5924;51.398;7.088;2023-08-31T06:20:31;7.03;;;6.50;;
11735;SDS011;5924;51.398;7.088;2023-08-31T06:22:57;9.83;;;7.53;;
11735;SDS011;5924;51.398;7.088;2023-08-31T06:25:22;7.90;;;7.27;;
11735;SDS011;5924;51.398;7.088;2023-08-31T06:27:54;8.60;;;7.30;;
11735;SDS011;5924;51.398;7.088;2023-08-31T06:30:20;10.67;;;7.13;;
11735;SDS011;5924;51.398;7.088;2023-08-31T06:32:56;7.93;;;7.30;;
11735;SDS011;5924;51.398;7.088;2023-08-31T06:35:21;6.60;;;6.20;;
11735;SDS011;5924;51.398;7.088;2023-08-31T06:37:48;6.70;;;6.13;;
11735;SDS011;5924;51.398;7.088;2023-08-31T06:40:18;9.13;;;6.37;;
11735;SDS011;5924;51.398;7.088;2023-08-31T06:42:44;6.80;;;5.87;;
11735;SDS011;5924;51.398;7.088;2023-08-31T06:45:09;6.93;;;5.63;;
11735;SDS011;5924;51.398;7.088;2023-08-31T06:47:38;8.43;;;5.60;;
11735;SDS011;5924;51.398;7.088;2023-08-31T06:50:03;6.10;;;5.57;;
11735;SDS011;5924;51.398;7.088;2023-08-31T06:52:35;6.37;;;5.67;;
11735;SDS011;5924;51.398;7.088;2023-08-31T06:55:09;5.73;;;5.37;;
11735;SDS011;5924;51.398;7.088;2023-08-31T06:57:43;5.50;;;5.00;;
11735;SDS011;5924;51.398;7.088;2023-08-31T07:00:14;4.80;;;4.60;;
11735;SDS011;5924;51.398;7.088;2023-08-31T07:02:43;4.83;;;4.30;;
11735;SDS011;5924;51.398;7.088;2023-08-31T07:05:12;5.73;;;5.10;;
11735;SDS011;5924;51.398;7.088;2023-08-31T07:07:40;7.43;;;4.90;;
11735;SDS011;5924;51.398;7.088;2023-08-31T07:10:06;4.73;;;4.40;;
11735;SDS011;5924;51.398;7.088;2023-08-31T07:12:34;4.90;;;4.50;;
11735;SDS011;5924;51.398;7.088;2023-08-31T07:15:00;4.23;;;4.13;;
11735;SDS011;5924;51.398;7.088;2023-08-31T07:17:38;4.57;;;4.37;;
11735;SDS011;5924;51.398;7.088;2023-08-31T07:20:04;3.50;;;3.30;;
11735;SDS011;5924;51.398;7.088;2023-08-31T07:22:33;3.70;;;3.47;;
11735;SDS011;5924;51.398;7.088;2023-08-31T07:25:03;5.30;;;4.90;;
11735;SDS011;5924;51.398;7.088;2023-08-31T07:27:35;6.20;;;4.23;;
11735;SDS011;5924;51.398;7.088;2023-08-31T07:30:06;4.87;;;4.60;;
11735;SDS011;5924;51.398;7.088;2023-08-31T07:32:41;4.27;;;3.63;;
11735;SDS011;5924;51.398;7.088;2023-08-31T07:35:09;4.30;;;3.63;;
11735;SDS011;5924;51.398;7.088;2023-08-31T07:37:44;4.10;;;3.80;;
11735;SDS011;5924;51.398;7.088;2023-08-31T07:40:18;6.50;;;5.30;;
11735;SDS011;5924;51.398;7.088;2023-08-31T07:42:47;4.17;;;3.97;;
11735;SDS011;5924;51.398;7.088;2023-08-31T07:45:16;4.00;;;3.80;;
11735;SDS011;5924;51.398;7.088;2023-08-31T07:47:45;6.93;;;3.70;;
11735;SDS011;5924;51.398;7.088;2023-08-31T07:50:31;5.53;;;3.87;;
11735;SDS011;5924;51.398;7.088;2023-08-31T07:52:59;6.10;;;3.07;;
11735;SDS011;5924;51.398;7.088;2023-08-31T07:55:25;3.60;;;3.30;;
11735;SDS011;5924;51.398;7.088;2023-08-31T07:57:54;3.40;;;3.20;;
11735;SDS011;5924;51.398;7.088;2023-08-31T08:00:26;8.43;;;3.10;;
11735;SDS011;5924;51.398;7.088;2023-08-31T08:02:55;3.47;;;3.20;;
11735;SDS011;5924;51.398;7.088;2023-08-31T08:05:20;4.00;;;3.37;;
11735;SDS011;5924;51.398;7.088;2023-08-31T08:07:48;3.57;;;2.90;;
11735;SDS011;5924;51.398;7.088;2023-08-31T08:10:15;4.47;;;4.17;;
11735;SDS011;5924;51.398;7.088;2023-08-31T08:12:42;6.30;;;3.30;;
11735;SDS011;5924;51.398;7.088;2023-08-31T08:15:11;2.53;;;2.13;;
11735;SDS011;5924;51.398;7.088;2023-08-31T08:17:37;3.03;;;2.77;;
11735;SDS011;5924;51.398;7.088;2023-08-31T08:20:04;4.33;;;2.80;;
11735;SDS011;5924;51.398;7.088;2023-08-31T08:22:31;2.60;;;2.40;;
11735;SDS011;5924;51.398;7.088;2023-08-31T08:25:03;4.37;;;3.30;;
11735;SDS011;5924;51.398;7.088;2023-08-31T08:27:33;2.67;;;2.57;;
11735;SDS011;5924;51.398;7.088;2023-08-31T08:29:59;2.73;;;2.53;;
11735;SDS011;5924;51.398;7.088;2023-08-31T08:32:26;3.27;;;2.77;;
11735;SDS011;5924;51.398;7.088;2023-08-31T08:34:54;6.03;;;2.80;;
11735;SDS011;5924;51.398;7.088;2023-08-31T08:37:41;2.67;;;2.47;;
11735;SDS011;5924;51.398;7.088;2023-08-31T08:40:11;5.20;;;2.70;;
11735;SDS011;5924;51.398;7.088;2023-08-31T08:42:38;3.20;;;2.67;;
11735;SDS011;5924;51.398;7.088;2023-08-31T08:45:12;3.27;;;3.07;;
11735;SDS011;5924;51.398;7.088;2023-08-31T08:47:48;3.17;;;2.87;;
11735;SDS011;5924;51.398;7.088;2023-08-31T08:50:15;3.10;;;2.90;;
11735;SDS011;5924;51.398;7.088;2023-08-31T08:53:04;3.50;;;2.77;;
11735;SDS011;5924;51.398;7.088;2023-08-31T08:55:31;5.70;;;2.90;;
11735;SDS011;5924;51.398;7.088;2023-08-31T08:57:58;5.10;;;2.73;;
11735;SDS011;5924;51.398;7.088;2023-08-31T09:00:28;2.87;;;2.80;;
11735;SDS011;5924;51.398;7.088;2023-08-31T09:02:58;4.47;;;2.60;;
11735;SDS011;5924;51.398;7.088;2023-08-31T09:05:31;3.60;;;2.80;;
11735;SDS011;5924;51.398;7.088;2023-08-31T09:10:34;4.00;;;2.63;;
11735;SDS011;5924;51.398;7.088;2023-08-31T09:13:05;3.17;;;2.23;;
11735;SDS011;5924;51.398;7.088;2023-08-31T09:16:07;2.30;;;1.90;;
11735;SDS011;5924;51.398;7.088;2023-08-31T09:18:33;7.77;;;3.00;;
11735;SDS011;5924;51.398;7.088;2023-08-31T09:20:59;11.17;;;3.07;;
11735;SDS011;5924;51.398;7.088;2023-08-31T09:23:26;4.07;;;2.90;;
11735;SDS011;5924;51.398;7.088;2023-08-31T09:25:55;9.40;;;2.50;;
11735;SDS011;5924;51.398;7.088;2023-08-31T09:28:21;2.53;;;2.43;;
11735;SDS011;5924;51.398;7.088;2023-08-31T09:30:51;4.50;;;3.00;;
11735;SDS011;5924;51.398;7.088;2023-08-31T09:33:20;2.20;;;2.20;;
11735;SDS011;5924;51.398;7.088;2023-08-31T09:35:50;2.23;;;1.93;;
11735;SDS011;5924;51.398;7.088;2023-08-31T09:38:17;3.30;;;2.37;;
11735;SDS011;5924;51.398;7.088;2023-08-31T09:40:43;2.50;;;2.20;;
11735;SDS011;5924;51.398;7.088;2023-08-31T09:43:17;6.07;;;2.33;;
11735;SDS011;5924;51.398;7.088;2023-08-31T09:45:53;7.90;;;2.87;;
11735;SDS011;5924;51.398;7.088;2023-08-31T09:48:19;3.63;;;3.03;;
11735;SDS011;5924;51.398;7.088;2023-08-31T09:50:45;3.70;;;2.30;;
11735;SDS011;5924;51.398;7.088;2023-08-31T09:53:15;2.40;;;2.33;;
11735;SDS011;5924;51.398;7.088;2023-08-31T09:55:41;5.67;;;2.13;;
11735;SDS011;5924;51.398;7.088;2023-08-31T09:58:16;3.50;;;2.30;;
11735;SDS011;5924;51.398;7.088;2023-08-31T10:00:50;2.00;;;1.90;;
11735;SDS011;5924;51.398;7.088;2023-08-31T10:03:20;4.40;;;1.70;;
11735;SDS011;5924;51.398;7.088;2023-08-31T10:05:47;3.00;;;1.70;;
11735;SDS011;5924;51.398;7.088;2023-08-31T10:08:16;2.87;;;2.27;;
11735;SDS011;5924;51.398;7.088;2023-08-31T10:10:59;1.60;;;1.50;;
11735;SDS011;5924;51.398;7.088;2023-08-31T10:13:30;2.57;;;1.60;;
11735;SDS011;5924;51.398;7.088;2023-08-31T10:16:04;3.20;;;1.30;;
11735;SDS011;5924;51.398;7.088;2023-08-31T10:18:30;1.60;;;1.50;;
11735;SDS011;5924;51.398;7.088;2023-08-31T10:20:57;1.43;;;1.33;;
11735;SDS011;5924;51.398;7.088;2023-08-31T10:23:24;1.97;;;1.87;;
11735;SDS011;5924;51.398;7.088;2023-08-31T10:28:26;3.50;;;1.67;;
11735;SDS011;5924;51.398;7.088;2023-08-31T10:31:02;1.50;;;1.50;;
11735;SDS011;5924;51.398;7.088;2023-08-31T10:33:40;2.53;;;1.90;;
11735;SDS011;5924;51.398;7.088;2023-08-31T10:36:13;1.47;;;1.37;;
11735;SDS011;5924;51.398;7.088;2023-08-31T10:41:36;2.60;;;2.03;;
11735;SDS011;5924;51.398;7.088;2023-08-31T10:46:44;2.87;;;1.80;;
11735;SDS011;5924;51.398;7.088;2023-08-31T10:51:40;2.03;;;1.93;;
11735;SDS011;5924;51.398;7.088;2023-08-31T10:57:04;2.80;;;2.53;;
11735;SDS011;5924;51.398;7.088;2023-08-31T10:59:52;7.80;;;1.90;;
11735;SDS011;5924;51.398;7.088;2023-08-31T11:05:15;2.00;;;1.90;;
11735;SDS011;5924;51.398;7.088;2023-08-31T11:07:47;2.60;;;2.10;;
11735;SDS011;5924;51.398;7.088;2023-08-31T11:10:24;2.63;;;1.93;;
11735;SDS011;5924;51.398;7.088;2023-08-31T11:12:54;3.93;;;2.27;;
11735;SDS011;5924;51.398;7.088;2023-08-31T11:15:23;1.90;;;1.80;;
11735;SDS011;5924;51.398;7.088;2023-08-31T11:17:51;3.37;;;2.00;;
11735;SDS011;5924;51.398;7.088;2023-08-31T11:20:23;12.23;;;3.93;;
11735;SDS011;5924;51.398;7.088;2023-08-31T11:22:56;4.53;;;2.23;;
11735;SDS011;5924;51.398;7.088;2023-08-31T11:25:31;2.60;;;2.40;;
11735;SDS011;5924;51.398;7.088;2023-08-31T11:28:03;1.90;;;1.80;;
11735;SDS011;5924;51.398;7.088;2023-08-31T11:30:33;3.47;;;1.70;;
11735;SDS011;5924;51.398;7.088;2023-08-31T11:33:13;2.90;;;1.73;;
11735;SDS011;5924;51.398;7.088;2023-08-31T11:36:06;2.00;;;1.90;;
11735;SDS011;5924;51.398;7.088;2023-08-31T11:38:32;2.50;;;1.50;;
11735;SDS011;5924;51.398;7.088;2023-08-31T11:41:03;1.67;;;1.57;;
11735;SDS011;5924;51.398;7.088;2023-08-31T11:43:29;3.00;;;1.47;;
11735;SDS011;5924;51.398;7.088;2023-08-31T11:46:06;4.83;;;1.80;;
11735;SDS011;5924;51.398;7.088;2023-08-31T11:48:50;4.17;;;2.27;;
11735;SDS011;5924;51.398;7.088;2023-08-31T11:51:20;5.40;;;2.50;;
11735;SDS011;5924;51.398;7.088;2023-08-31T11:53:49;37.37;;;9.10;;
11735;SDS011;5924;51.398;7.088;2023-08-31T11:56:15;1.77;;;1.63;;
11735;SDS011;5924;51.398;7.088;2023-08-31T11:58:46;3.33;;;1.80;;
11735;SDS011;5924;51.398;7.088;2023-08-31T12:01:27;8.73;;;1.70;;
11735;SDS011;5924;51.398;7.088;2023-08-31T12:03:53;2.50;;;1.67;;
11735;SDS011;5924;51.398;7.088;2023-08-31T12:06:22;4.90;;;1.57;;
11735;SDS011;5924;51.398;7.088;2023-08-31T12:08:48;3.60;;;1.77;;
11735;SDS011;5924;51.398;7.088;2023-08-31T12:11:18;3.63;;;2.07;;
11735;SDS011;5924;51.398;7.088;2023-08-31T12:13:52;5.00;;;1.43;;
11735;SDS011;5924;51.398;7.088;2023-08-31T12:16:41;3.10;;;1.80;;
11735;SDS011;5924;51.398;7.088;2023-08-31T12:19:06;2.00;;;1.90;;
11735;SDS011;5924;51.398;7.088;2023-08-31T12:21:34;2.13;;;1.90;;
11735;SDS011;5924;51.398;7.088;2023-08-31T12:24:00;2.17;;;2.00;;
11735;SDS011;5924;51.398;7.088;2023-08-31T12:26:28;2.10;;;1.80;;
11735;SDS011;5924;51.398;7.088;2023-08-31T12:28:57;2.57;;;1.80;;
11735;SDS011;5924;51.398;7.088;2023-08-31T12:31:26;1.50;;;1.50;;
11735;SDS011;5924;51.398;7.088;2023-08-31T12:33:52;2.67;;;1.20;;
11735;SDS011;5924;51.398;7.088;2023-08-31T12:36:20;1.30;;;1.30;;
11735;SDS011;5924;51.398;7.088;2023-08-31T12:39:01;2.00;;;1.87;;
11735;SDS011;5924;51.398;7.088;2023-08-31T12:41:35;1.47;;;1.37;;
11735;SDS011;5924;51.398;7.088;2023-08-31T12:44:16;3.33;;;1.43;;
11735;SDS011;5924;51.398;7.088;2023-08-31T12:46:47;1.47;;;1.37;;
11735;SDS011;5924;51.398;7.088;2023-08-31T12:49:13;1.13;;;0.90;;
11735;SDS011;5924;51.398;7.088;2023-08-31T12:51:39;1.90;;;1.50;;
11735;SDS011;5924;51.398;7.088;2023-08-31T12:54:04;2.40;;;1.10;;
11735;SDS011;5924;51.398;7.088;2023-08-31T12:56:40;1.93;;;1.10;;
11735;SDS011;5924;51.398;7.088;2023-08-31T12:59:09;1.63;;;1.63;;
11735;SDS011;5924;51.398;7.088;2023-08-31T13:01:37;2.30;;;1.43;;
11735;SDS011;5924;51.398;7.088;2023-08-31T13:04:03;1.73;;;1.60;;
11735;SDS011;5924;51.398;7.088;2023-08-31T13:06:37;1.50;;;1.40;;
11735;SDS011;5924;51.398;7.088;2023-08-31T13:09:03;1.80;;;1.70;;
11735;SDS011;5924;51.398;7.088;2023-08-31T13:11:54;1.90;;;1.80;;
11735;SDS011;5924;51.398;7.088;2023-08-31T13:14:27;1.80;;;1.70;;
11735;SDS011;5924;51.398;7.088;2023-08-31T13:16:53;1.83;;;1.73;;
11735;SDS011;5924;51.398;7.088;2023-08-31T13:19:18;1.53;;;1.43;;
11735;SDS011;5924;51.398;7.088;2023-08-31T13:21:44;3.17;;;1.70;;
11735;SDS011;5924;51.398;7.088;2023-08-31T13:24:31;5.97;;;1.80;;
11735;SDS011;5924;51.398;7.088;2023-08-31T13:27:16;4.07;;;1.90;;
11735;SDS011;5924;51.398;7.088;2023-08-31T13:29:43;2.60;;;2.40;;
11735;SDS011;5924;51.398;7.088;2023-08-31T13:32:11;4.17;;;1.50;;
11735;SDS011;5924;51.398;7.088;2023-08-31T13:34:41;1.33;;;1.23;;
11735;SDS011;5924;51.398;7.088;2023-08-31T13:37:07;1.70;;;1.60;;
11735;SDS011;5924;51.398;7.088;2023-08-31T13:39:34;4.07;;;2.30;;
11735;SDS011;5924;51.398;7.088;2023-08-31T13:42:05;1.73;;;1.63;;
11735;SDS011;5924;51.398;7.088;2023-08-31T13:44:31;1.67;;;1.50;;
11735;SDS011;5924;51.398;7.088;2023-08-31T13:46:57;2.30;;;2.10;;
11735;SDS011;5924;51.398;7.088;2023-08-31T13:49:31;2.10;;;1.60;;
11735;SDS011;5924;51.398;7.088;2023-08-31T13:52:00;5.73;;;2.30;;
11735;SDS011;5924;51.398;7.088;2023-08-31T13:54:25;2.40;;;1.80;;
11735;SDS011;5924;51.398;7.088;2023-08-31T13:56:56;2.63;;;2.37;;
11735;SDS011;5924;51.398;7.088;2023-08-31T13:59:22;3.57;;;2.10;;
11735;SDS011;5924;51.398;7.088;2023-08-31T14:01:55;1.90;;;1.80;;
11735;SDS011;5924;51.398;7.088;2023-08-31T14:04:29;1.70;;;1.60;;
11735;SDS011;5924;51.398;7.088;2023-08-31T14:07:00;3.10;;;2.10;;
11735;SDS011;5924;51.398;7.088;2023-08-31T14:09:27;1.90;;;1.80;;
11735;SDS011;5924;51.398;7.088;2023-08-31T14:11:53;3.17;;;1.73;;
11735;SDS011;5924;51.398;7.088;2023-08-31T14:14:20;2.73;;;2.23;;
11735;SDS011;5924;51.398;7.088;2023-08-31T14:16:50;1.57;;;1.47;;
11735;SDS011;5924;51.398;7.088;2023-08-31T14:19:15;2.00;;;1.83;;
11735;SDS011;5924;51.398;7.088;2023-08-31T14:21:45;3.27;;;1.70;;
11735;SDS011;5924;51.398;7.088;2023-08-31T14:24:12;6.80;;;1.57;;
11735;SDS011;5924;51.398;7.088;2023-08-31T14:26:38;4.60;;;1.77;;
11735;SDS011;5924;51.398;7.088;2023-08-31T14:29:03;1.47;;;1.30;;
11735;SDS011;5924;51.398;7.088;2023-08-31T14:31:35;2.33;;;1.50;;
11735;SDS011;5924;51.398;7.088;2023-08-31T14:34:03;1.33;;;1.33;;
11735;SDS011;5924;51.398;7.088;2023-08-31T14:36:37;3.07;;;1.77;;
11735;SDS011;5924;51.398;7.088;2023-08-31T14:39:03;1.63;;;1.53;;
11735;SDS011;5924;51.398;7.088;2023-08-31T14:41:34;2.77;;;2.47;;
11735;SDS011;5924;51.398;7.088;2023-08-31T14:44:05;4.00;;;2.50;;
11735;SDS011;5924;51.398;7.088;2023-08-31T14:46:36;3.90;;;3.17;;
11735;SDS011;5924;51.398;7.088;2023-08-31T14:49:05;2.80;;;2.70;;
11735;SDS011;5924;51.398;7.088;2023-08-31T14:51:43;2.90;;;2.80;;
11735;SDS011;5924;51.398;7.088;2023-08-31T14:54:35;7.53;;;3.43;;
11735;SDS011;5924;51.398;7.088;2023-08-31T14:57:03;3.73;;;3.47;;
11735;SDS011;5924;51.398;7.088;2023-08-31T14:59:29;3.20;;;3.10;;
11735;SDS011;5924;51.398;7.088;2023-08-31T15:01:55;6.90;;;4.17;;
11735;SDS011;5924;51.398;7.088;2023-08-31T15:04:26;3.80;;;3.50;;
11735;SDS011;5924;51.398;7.088;2023-08-31T15:06:53;7.27;;;3.50;;
11735;SDS011;5924;51.398;7.088;2023-08-31T15:09:19;3.67;;;3.47;;
11735;SDS011;5924;51.398;7.088;2023-08-31T15:11:56;3.00;;;2.73;;
11735;SDS011;5924;51.398;7.088;2023-08-31T15:14:24;3.83;;;3.50;;
11735;SDS011;5924;51.398;7.088;2023-08-31T15:16:52;3.70;;;3.40;;
11735;SDS011;5924;51.398;7.088;2023-08-31T15:19:27;3.27;;;3.10;;
11735;SDS011;5924;51.398;7.088;2023-08-31T15:21:57;5.90;;;3.47;;
11735;SDS011;5924;51.398;7.088;2023-08-31T15:24:27;3.83;;;3.33;;
11735;SDS011;5924;51.398;7.088;2023-08-31T15:26:53;3.53;;;3.33;;
11735;SDS011;5924;51.398;7.088;2023-08-31T15:29:27;3.10;;;2.90;;
11735;SDS011;5924;51.398;7.088;2023-08-31T15:32:26;2.90;;;2.73;;
11735;SDS011;5924;51.398;7.088;2023-08-31T15:34:45;2.60;;;2.50;;
11735;SDS011;5924;51.398;7.088;2023-08-31T15:37:10;3.33;;;2.93;;
11735;SDS011;5924;51.398;7.088;2023-08-31T15:39:36;3.50;;;3.30;;
11735;SDS011;5924;51.398;7.088;2023-08-31T15:42:02;4.40;;;2.80;;
11735;SDS011;5924;51.398;7.088;2023-08-31T15:44:28;4.47;;;2.63;;